Time;durP1;ratioP1;P1;durP2;ratioP2;P2;SDS_P1;SDS_P2;PMS_P1;PMS_P2;Temp;Humidity;BMP_temperature;BMP_pressure;BME280_temperature;BME280_humidity;BME280_pressure;Samples;Min_cycle;Max_cycle;Signal;HPM_P1;HPM_P2
2024/02/24 00:01:19;;;;;;;6.05;2.25;;;2.90;99.90;;;;;;6210131;28;20053;-91
2024/02/24 00:04:21;;;;;;;6.03;2.05;;;2.90;99.90;;;;;;6228201;28;20129;-89
2024/02/24 00:07:23;;;;;;;7.03;2.17;;;2.80;99.90;;;;;;6205782;28;20046;-91
2024/02/24 00:10:24;;;;;;;6.38;2.33;;;2.80;99.90;;;;;;6222098;28;20058;-91
2024/02/24 00:13:26;;;;;;;6.10;2.20;;;2.60;99.90;;;;;;6223204;28;20577;-92
2024/02/24 00:16:28;;;;;;;6.45;2.17;;;2.60;99.90;;;;;;6211491;28;20507;-91
2024/02/24 00:19:30;;;;;;;5.95;2.03;;;2.60;99.90;;;;;;6209250;28;20525;-90
2024/02/24 00:22:31;;;;;;;5.60;1.95;;;2.50;99.90;;;;;;6228855;28;20057;-90
2024/02/24 00:25:33;;;;;;;5.78;2.55;;;2.40;99.90;;;;;;6207263;28;20073;-90
2024/02/24 00:28:35;;;;;;;7.15;2.20;;;2.40;99.90;;;;;;6234159;28;20141;-91
2024/02/24 00:31:37;;;;;;;6.43;2.15;;;2.30;99.90;;;;;;6219667;28;20060;-90
2024/02/24 00:34:39;;;;;;;5.20;2.03;;;2.20;99.90;;;;;;6212329;28;20058;-91
2024/02/24 00:37:40;;;;;;;4.82;1.90;;;2.10;99.90;;;;;;6234019;28;20068;-90
2024/02/24 00:40:42;;;;;;;6.28;1.83;;;2.10;99.90;;;;;;6213489;28;20046;-90
2024/02/24 00:43:44;;;;;;;6.90;2.03;;;2.00;99.90;;;;;;6220904;28;20073;-89
2024/02/24 00:46:46;;;;;;;6.03;2.40;;;2.00;99.90;;;;;;6210518;28;20054;-90
2024/02/24 00:49:47;;;;;;;5.95;2.40;;;1.90;99.90;;;;;;6235957;28;20540;-90
2024/02/24 00:52:49;;;;;;;4.70;2.13;;;1.90;99.90;;;;;;6236319;28;20065;-91
2024/02/24 00:55:51;;;;;;;6.78;2.13;;;1.80;99.90;;;;;;6209799;28;20058;-90
2024/02/24 00:58:52;;;;;;;5.35;2.33;;;1.80;99.90;;;;;;6221277;28;20057;-91
2024/02/24 01:01:54;;;;;;;6.85;2.30;;;1.80;99.90;;;;;;6198655;28;20058;-90
2024/02/24 01:04:56;;;;;;;6.28;2.38;;;1.80;99.90;;;;;;6237288;28;20054;-92
2024/02/24 01:07:57;;;;;;;7.53;2.47;;;1.70;99.90;;;;;;6209465;28;20050;-90
2024/02/24 01:10:59;;;;;;;5.88;2.28;;;1.70;99.90;;;;;;6232784;28;20069;-90
2024/02/24 01:14:01;;;;;;;6.90;2.22;;;1.60;99.90;;;;;;6219387;28;20054;-90
2024/02/24 01:17:03;;;;;;;8.98;2.17;;;1.60;99.90;;;;;;6194901;28;20058;-91
2024/02/24 01:20:05;;;;;;;5.32;2.10;;;1.60;99.90;;;;;;6221835;28;20060;-90
2024/02/24 01:23:06;;;;;;;5.97;2.15;;;1.60;99.90;;;;;;6224525;28;20077;-90
2024/02/24 01:26:08;;;;;;;7.80;2.28;;;1.60;99.90;;;;;;6201253;28;20077;-92
2024/02/24 01:29:14;;;;;;;7.75;2.28;;;1.60;99.90;;;;;;6209764;28;20057;-91
2024/02/24 01:32:16;;;;;;;11.07;2.50;;;1.50;99.90;;;;;;6216996;28;20506;-91
2024/02/24 01:35:18;;;;;;;6.00;2.40;;;1.50;99.90;;;;;;6225308;28;20613;-91
2024/02/24 01:38:19;;;;;;;6.15;2.42;;;1.50;99.90;;;;;;6200964;28;20057;-92
2024/02/24 01:41:21;;;;;;;11.57;3.08;;;1.50;99.90;;;;;;6224531;28;20129;-91
2024/02/24 01:44:23;;;;;;;7.22;2.80;;;1.50;99.90;;;;;;6209089;28;20056;-91
2024/02/24 01:47:25;;;;;;;5.93;2.55;;;1.50;99.90;;;;;;6200564;28;20133;-90
2024/02/24 01:50:26;;;;;;;8.13;2.85;;;1.40;99.90;;;;;;6221662;28;20108;-90
2024/02/24 01:53:28;;;;;;;7.85;2.75;;;1.40;99.90;;;;;;6221945;28;20510;-90
2024/02/24 01:56:30;;;;;;;7.28;2.67;;;1.40;99.90;;;;;;6198091;28;20069;-90
2024/02/24 01:59:32;;;;;;;10.55;3.50;;;1.40;99.90;;;;;;6208690;28;20046;-90
2024/02/24 02:02:34;;;;;;;8.90;3.08;;;1.50;99.90;;;;;;6201012;28;20410;-91
2024/02/24 02:05:36;;;;;;;7.38;2.70;;;1.50;99.90;;;;;;6224588;28;20132;-91
2024/02/24 02:08:38;;;;;;;9.45;3.03;;;1.50;99.90;;;;;;6224574;28;20141;-92
2024/02/24 02:11:39;;;;;;;11.05;2.83;;;1.40;99.90;;;;;;6200388;28;20046;-91
2024/02/24 02:14:56;;;;;;;8.98;2.92;;;1.40;99.90;;;;;;6217609;28;20521;-92
2024/02/24 02:17:58;;;;;;;9.45;3.83;;;1.40;99.90;;;;;;6200457;28;20058;-91
2024/02/24 02:21:00;;;;;;;11.95;3.78;;;1.30;99.90;;;;;;6223679;28;20053;-92
2024/02/24 02:24:02;;;;;;;7.20;2.67;;;1.30;99.90;;;;;;6209649;28;20056;-91
2024/02/24 02:27:06;;;;;;;10.05;4.22;;;1.20;99.90;;;;;;6202773;28;20058;-92
2024/02/24 02:30:08;;;;;;;8.98;3.60;;;1.20;99.90;;;;;;6210079;28;20810;-92
2024/02/24 02:33:10;;;;;;;5.97;2.50;;;1.20;99.90;;;;;;6205321;28;20098;-92
2024/02/24 02:36:12;;;;;;;9.80;3.25;;;1.10;99.90;;;;;;6209573;28;20058;-92
2024/02/24 02:39:13;;;;;;;8.23;2.53;;;1.20;99.90;;;;;;6225975;28;20053;-93
2024/02/24 02:42:15;;;;;;;8.30;2.75;;;1.10;99.90;;;;;;6205527;28;20064;-92
2024/02/24 02:45:17;;;;;;;7.30;3.08;;;1.10;99.90;;;;;;6201076;28;21504;-92
2024/02/24 02:48:19;;;;;;;11.27;2.65;;;1.10;99.90;;;;;;6203758;28;20046;-93
2024/02/24 02:51:21;;;;;;;6.13;2.30;;;1.00;99.90;;;;;;6227548;28;20140;-93
2024/02/24 02:54:23;;;;;;;7.18;2.63;;;1.10;99.90;;;;;;6204854;28;20051;-92
2024/02/24 02:57:24;;;;;;;6.75;2.50;;;1.00;99.90;;;;;;6227486;28;20057;-92
2024/02/24 03:00:26;;;;;;;7.20;2.50;;;1.00;99.90;;;;;;6194010;28;20050;-91
2024/02/24 03:03:28;;;;;;;8.02;2.63;;;1.00;99.90;;;;;;6227713;28;20100;-90
2024/02/24 03:06:32;;;;;;;7.68;2.60;;;1.00;99.90;;;;;;6228086;28;20136;-92
2024/02/24 03:09:33;;;;;;;6.88;2.60;;;1.00;99.90;;;;;;6224984;28;20064;-91
2024/02/24 03:12:35;;;;;;;6.72;2.33;;;0.90;99.90;;;;;;6227217;28;20059;-90
2024/02/24 03:15:37;;;;;;;5.88;2.40;;;1.00;99.90;;;;;;6212071;28;20136;-88
2024/02/24 03:18:39;;;;;;;9.32;2.20;;;1.00;99.90;;;;;;6200330;28;20050;-87
2024/02/24 03:21:41;;;;;;;7.50;2.05;;;1.00;99.90;;;;;;6207294;28;20050;-88
2024/02/24 03:24:43;;;;;;;9.95;2.47;;;1.00;99.90;;;;;;6200173;28;20053;-88
2024/02/24 03:27:44;;;;;;;7.68;2.15;;;1.00;99.90;;;;;;6214247;28;20148;-87
2024/02/24 03:30:46;;;;;;;9.20;2.28;;;0.90;99.90;;;;;;6218156;28;19925;-86
2024/02/24 03:33:48;;;;;;;8.10;2.20;;;0.90;99.90;;;;;;6197881;28;20054;-86
2024/02/24 03:36:50;;;;;;;7.68;2.30;;;0.80;99.90;;;;;;6222284;28;20049;-87
2024/02/24 03:39:52;;;;;;;8.50;2.53;;;0.80;99.90;;;;;;6211643;28;20061;-87
2024/02/24 03:42:53;;;;;;;7.03;2.50;;;0.80;99.90;;;;;;6199491;28;20486;-87
2024/02/24 03:45:55;;;;;;;7.43;2.67;;;0.80;99.90;;;;;;6222237;28;20061;-87
2024/02/24 03:48:56;;;;;;;6.63;2.50;;;0.80;99.90;;;;;;6197903;28;20065;-87
2024/02/24 03:51:58;;;;;;;5.63;2.15;;;0.70;99.90;;;;;;6217511;28;20046;-87
2024/02/24 03:55:00;;;;;;;7.63;2.28;;;0.70;99.90;;;;;;6198305;28;20069;-87
2024/02/24 03:58:02;;;;;;;6.90;2.33;;;0.70;99.90;;;;;;6220054;28;20516;-88
2024/02/24 04:01:03;;;;;;;7.32;1.80;;;0.70;99.90;;;;;;6193061;28;20053;-87
2024/02/24 04:04:05;;;;;;;8.25;2.40;;;0.70;99.90;;;;;;6199512;28;20137;-87
2024/02/24 04:07:07;;;;;;;7.32;2.53;;;0.70;99.90;;;;;;6222709;28;20140;-86
2024/02/24 04:10:08;;;;;;;9.43;2.22;;;0.70;99.90;;;;;;6204062;28;20050;-86
2024/02/24 04:13:10;;;;;;;7.47;2.67;;;0.70;99.90;;;;;;6201629;28;20057;-87
2024/02/24 04:16:12;;;;;;;5.68;2.10;;;1.00;99.90;;;;;;6217038;28;20053;-87
2024/02/24 04:19:13;;;;;;;7.30;2.30;;;0.60;99.90;;;;;;6199646;28;20494;-87
2024/02/24 04:22:15;;;;;;;7.85;2.00;;;0.60;99.90;;;;;;6220726;28;20110;-87
2024/02/24 04:25:17;;;;;;;7.22;2.55;;;0.60;99.90;;;;;;6213208;28;20050;-87
2024/02/24 04:28:19;;;;;;;7.40;2.22;;;0.80;99.90;;;;;;6215942;28;20058;-87
2024/02/24 04:31:23;;;;;;;6.82;2.33;;;0.60;99.90;;;;;;6202482;28;20149;-86
2024/02/24 04:34:25;;;;;;;7.28;2.08;;;1.00;99.90;;;;;;6196583;28;20050;-86
2024/02/24 04:37:27;;;;;;;7.45;2.50;;;0.60;99.90;;;;;;6221205;28;20509;-86
2024/02/24 04:40:28;;;;;;;8.82;2.30;;;1.00;99.90;;;;;;6209979;28;20069;-86
2024/02/24 04:43:30;;;;;;;6.28;2.20;;;0.50;99.90;;;;;;6209093;28;20176;-88
2024/02/24 04:46:38;;;;;;;6.80;2.10;;;1.40;99.90;;;;;;6221211;28;20506;-87
2024/02/24 04:49:40;;;;;;;6.07;2.35;;;0.40;99.90;;;;;;6216746;28;20111;-87
2024/02/24 04:52:41;;;;;;;7.97;2.60;;;0.40;99.90;;;;;;6196213;28;20077;-86
2024/02/24 04:55:43;;;;;;;8.13;2.50;;;0.40;99.90;;;;;;6220899;28;20053;-86
2024/02/24 04:58:51;;;;;;;5.57;2.05;;;0.50;99.90;;;;;;6199013;28;20056;-85
2024/02/24 05:01:53;;;;;;;6.32;2.20;;;0.40;99.90;;;;;;6220715;28;20061;-87
2024/02/24 05:04:55;;;;;;;9.57;2.58;;;0.40;99.90;;;;;;6197520;28;20061;-87
2024/02/24 05:07:56;;;;;;;10.43;2.63;;;0.30;99.90;;;;;;6221647;28;20095;-88
2024/02/24 05:11:00;;;;;;;10.73;3.30;;;0.60;99.90;;;;;;6200790;28;20054;-88
2024/02/24 05:14:02;;;;;;;7.88;2.63;;;0.30;99.90;;;;;;6202107;28;20045;-87
2024/02/24 05:17:03;;;;;;;4.68;2.03;;;0.30;99.90;;;;;;6204039;28;20061;-88
2024/02/24 05:20:07;;;;;;;8.25;2.30;;;0.30;99.90;;;;;;6210765;28;20050;-87
2024/02/24 05:23:09;;;;;;;11.23;5.05;;;0.60;99.90;;;;;;6221590;28;20046;-88
2024/02/24 05:26:10;;;;;;;6.70;2.25;;;0.30;99.90;;;;;;6203050;28;20105;-88
2024/02/24 05:29:14;;;;;;;11.90;2.88;;;1.20;99.90;;;;;;6214524;28;20087;-88
2024/02/24 05:32:19;;;;;;;11.10;2.85;;;0.40;99.90;;;;;;6210434;28;20053;-88
2024/02/24 05:35:21;;;;;;;8.65;2.72;;;0.20;99.90;;;;;;6201677;28;20057;-88
2024/02/24 05:38:22;;;;;;;7.15;2.50;;;0.30;99.90;;;;;;6221840;28;20057;-87
2024/02/24 05:41:24;;;;;;;102.00;8.60;;;0.30;99.90;;;;;;6223797;28;20508;-89
2024/02/24 05:44:26;;;;;;;7.65;2.85;;;1.40;99.90;;;;;;6199053;28;20849;-89
2024/02/24 05:47:28;;;;;;;7.53;2.78;;;0.30;99.90;;;;;;6200462;28;20046;-89
2024/02/24 05:50:30;;;;;;;8.13;2.80;;;0.30;99.90;;;;;;6218312;28;20638;-88
2024/02/24 05:53:32;;;;;;;8.82;2.40;;;0.30;99.90;;;;;;6220838;28;20054;-88
2024/02/24 05:56:34;;;;;;;7.72;2.42;;;0.20;99.90;;;;;;6197591;28;20162;-88
2024/02/24 05:59:35;;;;;;;7.95;2.78;;;0.20;99.90;;;;;;6196716;28;20319;-87
2024/02/24 06:02:37;;;;;;;9.13;2.60;;;0.20;99.90;;;;;;6224131;28;20069;-88
2024/02/24 06:05:39;;;;;;;11.02;2.63;;;0.10;99.90;;;;;;6227961;28;20053;-87
2024/02/24 06:08:41;;;;;;;10.00;3.00;;;0.10;99.90;;;;;;6205567;28;20528;-89
2024/02/24 06:11:43;;;;;;;6.65;2.67;;;0.20;99.90;;;;;;6221659;28;20125;-88
2024/02/24 06:14:44;;;;;;;8.23;2.78;;;0.20;99.90;;;;;;6237340;28;20505;-88
2024/02/24 06:17:46;;;;;;;6.03;2.40;;;0.10;99.90;;;;;;6223776;28;20081;-88
2024/02/24 06:20:48;;;;;;;9.45;2.60;;;0.10;99.90;;;;;;6214125;28;20071;-89
2024/02/24 06:23:50;;;;;;;9.30;3.03;;;0.10;99.90;;;;;;6236581;28;20054;-88
2024/02/24 06:26:52;;;;;;;8.70;3.05;;;0.10;99.90;;;;;;6206893;28;20046;-89
2024/02/24 06:29:53;;;;;;;10.30;3.20;;;0.20;99.90;;;;;;6222596;28;20490;-90
2024/02/24 06:32:55;;;;;;;7.78;3.05;;;0.30;99.90;;;;;;6204237;28;20387;-88
2024/02/24 06:35:57;;;;;;;7.68;3.03;;;0.30;99.90;;;;;;6223628;28;20058;-88
2024/02/24 06:38:59;;;;;;;11.57;4.05;;;0.30;99.90;;;;;;6225158;28;20060;-89
2024/02/24 06:42:00;;;;;;;8.88;2.90;;;0.30;99.90;;;;;;6216923;28;20057;-88
2024/02/24 06:45:02;;;;;;;9.48;3.20;;;0.80;99.90;;;;;;6182929;28;20056;-89
2024/02/24 06:48:04;;;;;;;9.98;3.22;;;0.30;99.90;;;;;;6226086;28;20062;-88
2024/02/24 06:51:06;;;;;;;11.68;3.40;;;0.80;99.90;;;;;;6200952;28;20489;-87
2024/02/24 06:54:07;;;;;;;9.45;3.33;;;0.30;99.90;;;;;;6226199;28;20061;-89
2024/02/24 06:57:09;;;;;;;9.88;3.13;;;0.40;99.90;;;;;;6223071;28;20069;-88
2024/02/24 07:00:11;;;;;;;9.82;3.25;;;0.30;99.90;;;;;;6191865;28;20254;-87
2024/02/24 07:03:14;;;;;;;10.25;3.38;;;0.30;99.90;;;;;;6226236;28;20100;-87
2024/02/24 07:06:18;;;;;;;9.50;2.83;;;0.30;99.90;;;;;;6208833;28;20046;-88
2024/02/24 07:09:20;;;;;;;10.25;3.08;;;0.30;99.90;;;;;;6226007;28;20098;-89
2024/02/24 07:12:22;;;;;;;11.55;2.78;;;0.30;99.90;;;;;;6212966;28;20060;-87
2024/02/24 07:15:25;;;;;;;9.52;2.90;;;0.80;99.90;;;;;;6199726;28;20058;-89
2024/02/24 07:18:27;;;;;;;6.40;2.70;;;0.70;99.90;;;;;;6231706;28;20069;-89
2024/02/24 07:21:29;;;;;;;10.10;2.88;;;0.20;99.90;;;;;;6205871;28;20051;-90
2024/02/24 07:24:31;;;;;;;7.85;2.70;;;0.20;99.90;;;;;;6226266;28;20652;-88
2024/02/24 07:27:34;;;;;;;8.65;3.00;;;0.20;99.90;;;;;;6222598;28;20046;-88
2024/02/24 07:30:36;;;;;;;7.60;3.08;;;0.30;99.90;;;;;;6191512;28;20058;-90
2024/02/24 07:33:37;;;;;;;11.15;3.35;;;0.90;99.90;;;;;;6225188;28;20092;-89
2024/02/24 07:36:39;;;;;;;10.27;3.47;;;0.30;99.90;;;;;;6214742;28;20058;-89
2024/02/24 07:39:43;;;;;;;9.45;3.58;;;0.40;99.90;;;;;;6202488;28;20065;-89
2024/02/24 07:42:45;;;;;;;9.43;4.00;;;0.60;99.90;;;;;;6222898;28;20172;-89
2024/02/24 07:45:46;;;;;;;9.52;3.67;;;0.40;99.90;;;;;;6193753;28;20058;-87
2024/02/24 07:48:48;;;;;;;10.20;4.32;;;0.90;99.90;;;;;;6199575;28;20074;-85
2024/02/24 07:51:50;;;;;;;10.13;3.92;;;0.50;99.90;;;;;;6223401;28;20050;-86
2024/02/24 07:54:52;;;;;;;10.75;3.88;;;0.60;99.90;;;;;;6221813;28;20050;-82
2024/02/24 07:57:54;;;;;;;10.52;3.90;;;0.60;99.90;;;;;;6213960;28;20054;-89
2024/02/24 08:00:56;;;;;;;10.18;4.05;;;0.70;99.90;;;;;;6225835;28;20054;-89
2024/02/24 08:03:57;;;;;;;11.82;4.18;;;0.80;99.90;;;;;;6212400;28;20175;-90
2024/02/24 08:06:59;;;;;;;20.83;5.22;;;1.00;99.90;;;;;;6208697;28;20042;-91
2024/02/24 08:10:01;;;;;;;27.58;4.72;;;1.20;99.90;;;;;;6218559;28;20054;-89
2024/02/24 08:13:03;;;;;;;225.68;18.10;;;2.30;99.90;;;;;;6208077;28;20046;-85
2024/02/24 08:16:05;;;;;;;963.88;67.35;;;2.30;99.90;;;;;;6188111;28;20152;-85
2024/02/24 08:19:07;;;;;;;515.90;30.08;;;3.30;99.90;;;;;;6212604;28;20145;-85
2024/02/24 08:22:09;;;;;;;29.83;3.20;;;3.70;99.90;;;;;;6202975;28;20409;-85
2024/02/24 08:25:11;;;;;;;31.83;2.90;;;4.00;99.90;;;;;;6212878;28;20050;-85
2024/02/24 08:28:14;;;;;;;11.85;2.10;;;4.50;99.90;;;;;;6215639;28;20132;-88
2024/02/24 08:31:16;;;;;;;6.10;1.67;;;5.00;99.90;;;;;;6200114;28;20413;-87
2024/02/24 08:34:17;;;;;;;11.15;2.38;;;5.30;99.90;;;;;;6204964;28;20058;-89
2024/02/24 08:37:19;;;;;;;8.77;2.67;;;5.70;99.90;;;;;;6206725;28;20515;-91
2024/02/24 08:40:21;;;;;;;4.70;2.10;;;6.30;99.90;;;;;;6212142;28;20054;-88
2024/02/24 08:43:22;;;;;;;5.90;1.92;;;6.60;99.90;;;;;;6202846;28;20485;-86
2024/02/24 08:46:24;;;;;;;5.60;2.20;;;6.90;99.90;;;;;;6189028;28;20054;-88
2024/02/24 08:49:26;;;;;;;4.38;1.90;;;7.20;99.90;;;;;;6205237;28;20635;-93
2024/02/24 08:52:28;;;;;;;4.95;1.90;;;7.60;99.90;;;;;;6204385;28;20046;-89
2024/02/24 08:55:43;;;;;;;3.95;1.67;;;8.00;99.90;;;;;;6208061;28;20061;-93
2024/02/24 08:58:49;;;;;;;5.47;1.90;;;8.60;99.90;;;;;;6202583;28;20053;-83
2024/02/24 09:01:51;;;;;;;4.32;1.80;;;8.90;99.70;;;;;;6208946;28;20104;-88
2024/02/24 09:04:53;;;;;;;6.18;2.47;;;9.40;99.90;;;;;;6203037;28;20414;-89
2024/02/24 09:07:55;;;;;;;5.10;2.15;;;9.70;95.90;;;;;;6212672;28;20414;-91
2024/02/24 09:10:56;;;;;;;3.92;1.80;;;9.80;79.60;;;;;;6214133;28;20049;-92
2024/02/24 09:13:58;;;;;;;6.30;2.42;;;10.10;85.80;;;;;;6204543;28;20571;-88
2024/02/24 09:17:00;;;;;;;3.85;1.65;;;10.70;85.00;;;;;;6177859;28;20050;-89
2024/02/24 09:20:01;;;;;;;6.03;1.40;;;11.00;20.10;;;;;;6220759;28;20050;-88
2024/02/24 09:23:03;;;;;;;4.20;1.63;;;11.40;6.60;;;;;;6197055;28;20141;-89
2024/02/24 09:26:05;;;;;;;5.13;1.73;;;11.70;7.70;;;;;;6219651;28;20179;-88
2024/02/24 09:29:07;;;;;;;3.63;1.67;;;11.40;10.10;;;;;;6207229;28;20058;-88
2024/02/24 09:32:08;;;;;;;6.93;2.28;;;11.20;1.00;;;;;;6201265;28;20473;-89
2024/02/24 09:35:10;;;;;;;5.03;1.63;;;10.90;1.00;;;;;;6196415;28;20579;-86
2024/02/24 09:38:12;;;;;;;3.92;1.52;;;10.70;1.00;;;;;;6195900;28;20108;-87
2024/02/24 09:41:14;;;;;;;7.97;1.65;;;10.70;2.30;;;;;;6218887;28;20057;-88
2024/02/24 09:44:16;;;;;;;5.22;1.40;;;11.40;34.40;;;;;;6191945;28;20050;-86
2024/02/24 09:47:18;;;;;;;4.15;1.58;;;11.80;25.50;;;;;;6196580;28;20065;-86
2024/02/24 09:50:20;;;;;;;6.30;1.80;;;12.70;7.60;;;;;;6022397;23;20528;-86
2024/02/24 09:53:22;;;;;;;7.15;1.45;;;12.60;1.00;;;;;;6187645;28;20066;-85
2024/02/24 09:56:24;;;;;;;3.20;1.20;;;12.10;1.00;;;;;;6195163;28;20050;-86
2024/02/24 09:59:25;;;;;;;3.90;1.10;;;12.50;1.00;;;;;;6151965;28;20429;-85
2024/02/24 10:02:27;;;;;;;4.50;1.30;;;12.80;1.00;;;;;;6194297;28;20062;-86
2024/02/24 10:05:29;;;;;;;4.85;1.38;;;12.80;1.00;;;;;;6178545;28;20186;-85
2024/02/24 10:08:31;;;;;;;3.83;1.30;;;13.10;1.00;;;;;;6175746;28;20573;-85
2024/02/24 10:11:32;;;;;;;5.07;1.50;;;12.80;1.00;;;;;;6172195;28;20059;-86
2024/02/24 10:14:34;;;;;;;4.78;1.52;;;12.30;1.00;;;;;;6168560;28;20096;-87
2024/02/24 10:17:36;;;;;;;5.53;1.20;;;11.90;1.00;;;;;;6178309;28;20059;-87
2024/02/24 10:20:38;;;;;;;5.00;1.20;;;11.50;1.00;;;;;;6173741;28;20490;-88
2024/02/24 10:23:40;;;;;;;7.35;1.27;;;11.30;1.00;;;;;;6174849;28;20129;-88
2024/02/24 10:26:41;;;;;;;3.00;0.93;;;11.50;1.00;;;;;;6194764;28;20145;-87
2024/02/24 10:29:43;;;;;;;4.70;1.20;;;11.60;1.00;;;;;;6162109;28;20054;-86
2024/02/24 10:32:45;;;;;;;7.00;1.40;;;11.50;1.00;;;;;;6193740;28;20054;-86
2024/02/24 10:35:49;;;;;;;7.07;1.58;;;11.00;1.00;;;;;;6171071;28;20058;-86
2024/02/24 10:38:53;;;;;;;8.15;1.33;;;10.50;1.00;;;;;;6171866;28;20457;-87
2024/02/24 10:41:57;;;;;;;6.40;1.35;;;10.20;1.00;;;;;;6173344;28;20062;-86
2024/02/24 10:44:58;;;;;;;6.15;1.20;;;10.00;6.50;;;;;;6184122;28;20054;-84
2024/02/24 10:48:00;;;;;;;6.82;1.38;;;9.90;30.50;;;;;;6187828;28;20669;-84
2024/02/24 10:51:02;;;;;;;6.88;1.45;;;9.90;7.60;;;;;;6180902;28;20505;-86
2024/02/24 10:54:04;;;;;;;6.95;1.50;;;9.90;10.60;;;;;;6186743;28;20545;-84
2024/02/24 10:57:06;;;;;;;5.70;1.27;;;9.70;3.20;;;;;;6200889;28;20051;-86
2024/02/24 11:00:07;;;;;;;8.15;1.30;;;9.50;23.40;;;;;;6191257;28;20054;-85
2024/02/24 11:03:09;;;;;;;6.18;1.30;;;9.60;26.80;;;;;;6193182;28;20061;-90
2024/02/24 11:06:11;;;;;;;4.70;1.13;;;9.60;20.00;;;;;;6191061;28;20046;-89
2024/02/24 11:09:13;;;;;;;7.20;1.45;;;9.70;15.90;;;;;;6180857;28;20069;-84
2024/02/24 11:12:16;;;;;;;5.30;1.33;;;9.60;15.20;;;;;;6173351;28;20050;-89
2024/02/24 11:15:18;;;;;;;7.05;1.10;;;9.70;12.50;;;;;;6200721;28;20050;-83
2024/02/24 11:18:20;;;;;;;6.68;1.40;;;9.70;27.10;;;;;;6174798;28;20197;-87
2024/02/24 11:21:22;;;;;;;10.50;1.33;;;9.80;32.80;;;;;;6190460;28;20164;-86
2024/02/24 11:24:23;;;;;;;10.93;1.58;;;10.10;34.60;;;;;;6195813;28;20042;-86
2024/02/24 11:27:25;;;;;;;8.95;1.58;;;10.00;13.50;;;;;;6185481;28;20054;-86
2024/02/24 11:30:26;;;;;;;7.30;1.30;;;9.90;20.30;;;;;;6169096;28;20410;-88
2024/02/24 11:33:28;;;;;;;5.22;1.40;;;10.00;12.30;;;;;;6183432;28;20058;-87
2024/02/24 11:36:31;;;;;;;5.10;1.55;;;10.10;9.00;;;;;;6182502;28;20439;-84
2024/02/24 11:39:33;;;;;;;8.68;1.70;;;10.30;14.10;;;;;;6192597;28;20056;-87
2024/02/24 11:42:36;;;;;;;5.53;1.40;;;10.50;18.30;;;;;;6176326;28;20428;-84
2024/02/24 11:45:37;;;;;;;6.78;1.50;;;10.70;4.90;;;;;;6169931;28;20082;-85
2024/02/24 11:48:41;;;;;;;6.47;1.40;;;10.80;9.00;;;;;;6185398;28;20054;-85
2024/02/24 11:51:44;;;;;;;6.78;1.25;;;10.50;1.00;;;;;;6192615;28;20540;-83
2024/02/24 11:54:46;;;;;;;5.95;1.52;;;10.50;6.80;;;;;;6198366;28;20556;-84
2024/02/24 11:57:47;;;;;;;6.97;1.52;;;10.70;1.00;;;;;;6187631;28;20052;-83
2024/02/24 12:00:49;;;;;;;7.47;1.52;;;10.70;9.90;;;;;;6185562;28;20417;-84
2024/02/24 12:03:51;;;;;;;7.47;1.25;;;10.50;2.30;;;;;;6182230;28;20142;-84
2024/02/24 12:06:53;;;;;;;4.57;1.25;;;10.50;3.80;;;;;;6187388;28;20101;-83
2024/02/24 12:09:54;;;;;;;3.70;1.25;;;10.30;3.00;;;;;;6183846;28;20085;-84
2024/02/24 12:12:56;;;;;;;7.75;1.50;;;10.20;1.20;;;;;;6175466;28;20465;-84
2024/02/24 12:15:58;;;;;;;4.35;1.40;;;10.00;8.90;;;;;;6177129;28;20078;-85
2024/02/24 12:19:00;;;;;;;3.80;1.10;;;10.30;11.20;;;;;;6187800;28;20421;-85
2024/02/24 12:22:01;;;;;;;2.15;0.80;;;10.40;1.00;;;;;;6186543;28;20141;-85
2024/02/24 12:25:03;;;;;;;7.00;1.00;;;10.90;1.00;;;;;;6174901;28;20055;-86
2024/02/24 12:28:05;;;;;;;3.10;0.70;;;11.40;1.00;;;;;;6176678;28;20054;-86
2024/02/24 12:31:11;;;;;;;2.83;0.82;;;11.70;1.00;;;;;;6178783;28;20053;-85
2024/02/24 12:34:12;;;;;;;2.40;0.70;;;12.20;1.00;;;;;;6183536;28;20525;-86
2024/02/24 12:37:14;;;;;;;2.72;0.60;;;12.90;1.00;;;;;;6174057;28;20046;-86
2024/02/24 12:40:16;;;;;;;3.00;0.80;;;12.90;1.00;;;;;;6184167;28;20062;-86
2024/02/24 12:43:17;;;;;;;2.05;0.70;;;12.80;1.00;;;;;;6181710;28;20065;-85
2024/02/24 12:46:22;;;;;;;4.85;1.25;;;13.20;1.00;;;;;;6169565;28;20050;-85
2024/02/24 12:49:23;;;;;;;2.75;0.73;;;13.30;1.00;;;;;;6185241;28;20065;-83
2024/02/24 12:52:25;;;;;;;5.68;2.25;;;13.30;1.00;;;;;;6192174;28;20058;-84
2024/02/24 12:55:27;;;;;;;3.15;0.70;;;13.10;1.00;;;;;;6173746;28;20109;-85
2024/02/24 12:58:29;;;;;;;2.47;0.68;;;13.80;1.00;;;;;;6166403;28;20054;-86
2024/02/24 13:01:31;;;;;;;2.20;0.68;;;14.00;1.00;;;;;;6195941;28;20054;-84
2024/02/24 13:04:33;;;;;;;2.45;0.70;;;14.10;1.00;;;;;;6173512;28;20067;-84
2024/02/24 13:07:35;;;;;;;3.53;0.80;;;14.10;1.00;;;;;;6199864;28;20374;-86
2024/02/24 13:10:37;;;;;;;3.42;1.00;;;14.10;1.00;;;;;;6174639;28;20055;-86
2024/02/24 13:13:39;;;;;;;1.33;0.55;;;14.10;1.00;;;;;;6173422;28;20209;-85
2024/02/24 13:16:40;;;;;;;3.13;0.75;;;13.00;1.00;;;;;;6198842;28;20089;-84
2024/02/24 13:19:42;;;;;;;3.60;0.73;;;12.10;1.00;;;;;;6177827;28;20059;-86
2024/02/24 13:22:44;;;;;;;2.50;0.73;;;11.70;1.00;;;;;;6198047;28;20121;-85
2024/02/24 13:25:45;;;;;;;4.65;0.77;;;12.00;1.00;;;;;;6173675;28;20081;-85
2024/02/24 13:28:47;;;;;;;3.95;0.70;;;12.40;1.00;;;;;;6165161;28;20065;-86
2024/02/24 13:31:49;;;;;;;2.38;0.77;;;12.60;1.00;;;;;;6196996;28;20516;-87
2024/02/24 13:34:50;;;;;;;3.17;0.70;;;11.80;1.00;;;;;;6175021;28;20062;-85
2024/02/24 13:37:54;;;;;;;2.83;0.70;;;11.30;1.00;;;;;;6197940;28;20141;-87
2024/02/24 13:40:56;;;;;;;5.45;1.10;;;11.10;1.00;;;;;;6171756;28;20418;-86
2024/02/24 13:43:58;;;;;;;3.28;0.80;;;10.80;1.00;;;;;;6163978;28;20517;-86
2024/02/24 13:46:59;;;;;;;2.97;0.98;;;10.80;1.00;;;;;;6196648;28;20464;-86
2024/02/24 13:50:01;;;;;;;2.53;0.70;;;10.90;1.00;;;;;;6173483;28;20426;-84
2024/02/24 13:53:03;;;;;;;4.20;1.00;;;11.10;1.00;;;;;;6194807;28;20054;-86
2024/02/24 13:56:05;;;;;;;2.67;0.90;;;12.20;1.00;;;;;;6172904;28;20058;-86
2024/02/24 13:59:07;;;;;;;3.53;0.80;;;12.50;1.00;;;;;;6163214;28;20529;-87
2024/02/24 14:02:09;;;;;;;4.07;0.95;;;12.00;1.00;;;;;;6194106;28;20061;-84
2024/02/24 14:05:10;;;;;;;2.88;1.00;;;11.70;1.00;;;;;;6172549;28;20046;-84
2024/02/24 14:08:13;;;;;;;3.38;1.17;;;11.60;1.00;;;;;;6194504;28;20065;-86
2024/02/24 14:11:15;;;;;;;3.03;0.98;;;11.60;1.00;;;;;;6172355;28;20058;-86
2024/02/24 14:14:17;;;;;;;3.53;1.13;;;11.80;1.00;;;;;;6176044;28;20050;-86
2024/02/24 14:17:19;;;;;;;3.20;0.90;;;11.80;1.00;;;;;;6172017;28;20054;-86
2024/02/24 14:20:20;;;;;;;3.33;0.77;;;12.00;1.00;;;;;;6195164;28;20054;-86
2024/02/24 14:23:29;;;;;;;2.58;0.80;;;12.20;1.00;;;;;;6174505;28;20066;-87
2024/02/24 14:26:30;;;;;;;4.00;0.90;;;12.50;1.00;;;;;;6200681;28;20046;-86
2024/02/24 14:29:32;;;;;;;3.72;0.80;;;12.00;1.00;;;;;;6166749;28;20550;-86
2024/02/24 14:32:34;;;;;;;3.67;0.90;;;11.50;1.00;;;;;;6201853;28;20456;-85
2024/02/24 14:35:38;;;;;;;2.80;0.70;;;11.20;1.00;;;;;;6185022;28;20054;-85
2024/02/24 14:38:40;;;;;;;2.88;0.90;;;11.00;1.00;;;;;;6209013;28;20049;-85
2024/02/24 14:41:42;;;;;;;3.55;1.10;;;10.90;1.00;;;;;;6184583;28;20054;-85
2024/02/24 14:44:43;;;;;;;6.75;1.25;;;10.70;1.00;;;;;;6189149;28;20058;-84
2024/02/24 14:47:45;;;;;;;4.18;0.90;;;10.70;1.00;;;;;;6178321;28;20141;-85
2024/02/24 14:50:48;;;;;;;3.58;1.20;;;10.90;1.00;;;;;;6197870;28;20058;-85
2024/02/24 14:53:51;;;;;;;5.40;1.20;;;10.90;1.00;;;;;;6179791;28;20181;-85
2024/02/24 14:56:53;;;;;;;3.55;0.90;;;11.00;1.00;;;;;;6203864;28;20177;-82
2024/02/24 14:59:55;;;;;;;5.53;1.10;;;10.90;1.00;;;;;;6161698;28;20139;-82
2024/02/24 15:02:56;;;;;;;4.53;1.00;;;11.00;1.00;;;;;;6199382;28;20062;-82
2024/02/24 15:06:12;;;;;;;6.00;1.08;;;10.90;1.00;;;;;;6175244;28;20051;-81
2024/02/24 15:09:14;;;;;;;4.90;1.08;;;10.80;1.00;;;;;;6204898;28;20060;-81
2024/02/24 15:12:15;;;;;;;4.63;1.23;;;10.50;1.00;;;;;;6188003;28;20082;-85
2024/02/24 15:15:17;;;;;;;4.47;1.13;;;10.40;1.00;;;;;;6184129;28;20061;-84
2024/02/24 15:18:19;;;;;;;4.03;1.00;;;10.30;1.00;;;;;;6174728;28;20050;-85
2024/02/24 15:21:21;;;;;;;3.13;1.00;;;10.90;1.00;;;;;;6199800;28;20529;-85
2024/02/24 15:24:23;;;;;;;2.80;0.93;;;11.00;1.00;;;;;;6173272;28;20070;-83
2024/02/24 15:27:24;;;;;;;3.40;0.77;;;11.00;1.00;;;;;;6194445;28;20059;-85
2024/02/24 15:30:26;;;;;;;3.90;0.93;;;10.70;1.00;;;;;;6155963;28;20406;-85
2024/02/24 15:33:28;;;;;;;2.33;0.90;;;10.50;1.00;;;;;;6173622;28;20355;-85
2024/02/24 15:36:30;;;;;;;3.28;1.23;;;10.50;1.00;;;;;;6197975;28;20081;-85
2024/02/24 15:39:31;;;;;;;3.28;0.90;;;10.50;1.00;;;;;;6173488;28;20054;-87
2024/02/24 15:42:36;;;;;;;2.85;0.73;;;10.30;1.00;;;;;;6193177;28;20481;-84
2024/02/24 15:45:53;;;;;;;3.33;0.93;;;10.20;1.00;;;;;;6172175;28;20569;-84
2024/02/24 15:48:54;;;;;;;3.30;0.90;;;10.00;1.00;;;;;;6196736;28;20561;-82
2024/02/24 15:51:56;;;;;;;2.63;0.80;;;9.90;1.00;;;;;;6174216;28;20146;-82
2024/02/24 15:54:59;;;;;;;2.10;0.73;;;9.80;1.00;;;;;;6197082;28;20412;-82
2024/02/24 15:58:01;;;;;;;2.50;0.80;;;9.70;1.00;;;;;;6162811;28;20657;-85